Time;durP1;ratioP1;P1;durP2;ratioP2;P2;SDS_P1;SDS_P2;PMS_P1;PMS_P2;Temp;Humidity;BMP_temperature;BMP_pressure;BME280_temperature;BME280_humidity;BME280_pressure;Samples;Min_cycle;Max_cycle;Signal;HPM_P1;HPM_P2
2023/10/26 00:00:09;;;;;;;5.53;5.13;;;9.50;99.90;;;;;;5043080;28;20224;-80
2023/10/26 00:02:36;;;;;;;3.72;3.53;;;9.50;99.90;;;;;;5027600;28;20240;-80
2023/10/26 00:05:04;;;;;;;2.50;1.98;;;9.60;99.90;;;;;;5035723;28;20210;-78
2023/10/26 00:07:31;;;;;;;2.50;2.40;;;9.40;99.90;;;;;;5017581;28;20215;-78
2023/10/26 00:09:59;;;;;;;2.53;2.35;;;9.60;99.90;;;;;;5024983;28;20288;-81
2023/10/26 00:12:26;;;;;;;4.80;4.40;;;9.40;99.90;;;;;;5028882;28;20201;-80
2023/10/26 00:14:53;;;;;;;2.70;2.60;;;9.50;99.90;;;;;;5019537;28;20717;-78
2023/10/26 00:17:20;;;;;;;1.20;1.20;;;9.40;99.90;;;;;;5025409;28;20255;-80
2023/10/26 00:19:47;;;;;;;3.75;3.63;;;9.40;99.90;;;;;;5023833;28;20218;-79
2023/10/26 00:22:15;;;;;;;3.67;3.35;;;9.40;99.90;;;;;;5017526;28;20313;-78
2023/10/26 00:24:41;;;;;;;2.00;1.90;;;9.40;99.90;;;;;;5025868;28;20205;-80
2023/10/26 00:27:09;;;;;;;2.72;2.17;;;9.40;99.90;;;;;;5033674;28;20421;-79
2023/10/26 00:29:36;;;;;;;3.03;2.78;;;9.40;99.90;;;;;;5009408;28;20559;-83
2023/10/26 00:32:05;;;;;;;4.47;4.18;;;9.40;99.90;;;;;;5031782;28;20280;-78
2023/10/26 00:34:35;;;;;;;6.70;6.28;;;9.40;99.90;;;;;;5030884;28;20252;-80
2023/10/26 00:37:02;;;;;;;7.82;7.25;;;9.40;99.90;;;;;;5017808;28;20265;-79
2023/10/26 00:39:29;;;;;;;1.73;1.73;;;9.40;99.90;;;;;;5015426;28;20280;-81
2023/10/26 00:41:56;;;;;;;5.13;4.85;;;9.40;99.90;;;;;;5026116;28;20284;-80
2023/10/26 00:44:23;;;;;;;1.60;1.50;;;9.40;99.90;;;;;;5016518;28;20688;-78
2023/10/26 00:46:52;;;;;;;5.07;4.68;;;9.40;99.90;;;;;;5030929;28;20197;-80
2023/10/26 00:49:20;;;;;;;2.28;1.92;;;9.40;99.90;;;;;;5030871;28;20225;-81
2023/10/26 00:51:51;;;;;;;8.88;8.20;;;9.40;99.90;;;;;;5026075;28;20259;-80
2023/10/26 00:54:22;;;;;;;6.55;3.97;;;9.40;99.90;;;;;;5018502;28;20410;-82
2023/10/26 00:56:50;;;;;;;2.10;2.00;;;9.40;99.90;;;;;;5033452;28;20323;-79
2023/10/26 00:59:17;;;;;;;6.10;5.70;;;9.40;99.90;;;;;;5014136;28;20217;-81
2023/10/26 01:01:47;;;;;;;2.67;2.58;;;9.40;99.90;;;;;;5031445;28;20516;-78
2023/10/26 01:04:14;;;;;;;3.40;3.20;;;9.40;99.90;;;;;;5020592;28;20573;-78
2023/10/26 01:06:43;;;;;;;6.20;5.70;;;9.40;99.90;;;;;;5019509;28;20285;-80
2023/10/26 01:09:10;;;;;;;6.30;5.75;;;9.40;99.90;;;;;;5017591;28;20320;-81
2023/10/26 01:11:39;;;;;;;1.20;1.20;;;9.40;99.90;;;;;;5033014;28;20200;-87
2023/10/26 01:14:07;;;;;;;4.97;4.57;;;9.50;99.90;;;;;;5034065;28;20217;-80
2023/10/26 01:16:35;;;;;;;2.33;2.22;;;9.50;99.90;;;;;;5030059;28;20214;-83
2023/10/26 01:19:03;;;;;;;5.20;4.95;;;9.50;99.90;;;;;;5020491;28;20280;-85
2023/10/26 01:21:31;;;;;;;4.03;3.33;;;9.50;99.90;;;;;;5028371;28;20212;-86
2023/10/26 01:23:58;;;;;;;4.70;4.40;;;9.50;99.90;;;;;;5030369;28;20209;-83
2023/10/26 01:26:25;;;;;;;5.63;5.25;;;9.50;99.90;;;;;;5016917;28;20209;-82
2023/10/26 01:28:52;;;;;;;9.95;6.38;;;9.50;99.90;;;;;;5032220;28;20240;-84
2023/10/26 01:31:19;;;;;;;2.90;2.72;;;9.50;99.90;;;;;;5013889;28;20306;-83
2023/10/26 01:33:46;;;;;;;3.55;3.25;;;9.60;99.90;;;;;;5027826;28;20320;-81
2023/10/26 01:36:13;;;;;;;3.13;2.83;;;9.60;99.90;;;;;;5037054;28;20201;-81
2023/10/26 01:38:40;;;;;;;4.65;4.35;;;9.50;99.90;;;;;;5040335;28;20196;-84
2023/10/26 01:41:07;;;;;;;6.10;5.65;;;9.50;99.90;;;;;;5038448;28;20209;-78
2023/10/26 01:43:34;;;;;;;3.28;3.15;;;9.50;99.90;;;;;;5039028;28;20269;-84
2023/10/26 01:46:01;;;;;;;3.90;3.67;;;9.50;99.90;;;;;;5022224;28;20264;-83
2023/10/26 01:48:29;;;;;;;2.42;2.28;;;9.40;99.90;;;;;;5032011;28;20296;-83
2023/10/26 01:50:55;;;;;;;2.60;2.45;;;9.40;99.90;;;;;;5017657;28;20205;-79
2023/10/26 01:53:23;;;;;;;4.50;4.20;;;9.40;99.90;;;;;;5032379;28;20210;-82
2023/10/26 01:55:51;;;;;;;5.95;5.57;;;9.40;99.90;;;;;;5033345;28;20284;-81
2023/10/26 01:58:18;;;;;;;2.60;2.40;;;9.50;99.90;;;;;;5030576;28;20210;-81
2023/10/26 02:00:45;;;;;;;5.93;5.63;;;9.50;99.90;;;;;;5010788;28;20562;-85
2023/10/26 02:03:11;;;;;;;1.38;1.35;;;9.50;99.90;;;;;;5023980;28;20288;-81
2023/10/26 02:05:39;;;;;;;2.97;2.88;;;9.50;99.90;;;;;;5023812;28;20201;-82
2023/10/26 02:08:06;;;;;;;2.60;2.40;;;9.50;99.90;;;;;;5020042;28;20210;-79
2023/10/26 02:10:33;;;;;;;1.33;1.33;;;9.50;99.90;;;;;;5034464;28;20244;-81
2023/10/26 02:13:00;;;;;;;2.60;2.50;;;9.50;99.90;;;;;;5016550;28;20216;-82
2023/10/26 02:15:27;;;;;;;4.32;3.85;;;9.50;99.90;;;;;;5013489;28;20426;-81
2023/10/26 02:17:54;;;;;;;7.68;5.75;;;9.50;99.90;;;;;;5024687;28;20370;-80
2023/10/26 02:20:21;;;;;;;3.08;2.88;;;9.50;99.90;;;;;;5014552;28;20274;-80
2023/10/26 02:22:48;;;;;;;2.30;2.20;;;9.50;99.90;;;;;;5031172;28;20273;-82
2023/10/26 02:25:15;;;;;;;4.60;4.30;;;9.50;99.90;;;;;;5029464;28;20240;-81
2023/10/26 02:27:42;;;;;;;3.05;2.85;;;9.40;99.90;;;;;;5026629;28;20236;-80
2023/10/26 02:30:10;;;;;;;3.58;3.15;;;9.40;99.90;;;;;;5031155;28;20474;-80
2023/10/26 02:32:39;;;;;;;1.25;1.25;;;9.40;99.90;;;;;;5035138;28;20256;-80
2023/10/26 02:35:07;;;;;;;1.95;1.85;;;9.40;99.90;;;;;;5033265;28;20216;-80
2023/10/26 02:37:38;;;;;;;6.00;2.25;;;9.50;99.90;;;;;;5028142;28;20398;-80
2023/10/26 02:40:08;;;;;;;4.40;4.10;;;9.40;99.90;;;;;;5037582;28;20207;-82
2023/10/26 02:42:35;;;;;;;4.10;3.42;;;9.50;99.90;;;;;;5037334;28;20209;-82
2023/10/26 02:45:03;;;;;;;1.27;1.27;;;9.50;99.90;;;;;;5026867;28;20549;-83
2023/10/26 02:47:32;;;;;;;2.00;1.90;;;9.50;99.90;;;;;;5012795;28;20202;-81
2023/10/26 02:49:58;;;;;;;2.70;1.88;;;9.40;99.90;;;;;;5034513;28;20256;-83
2023/10/26 02:52:25;;;;;;;1.77;1.67;;;9.60;99.90;;;;;;5033338;28;20208;-78
2023/10/26 02:54:53;;;;;;;3.15;2.95;;;9.40;99.90;;;;;;5034501;28;20212;-79
2023/10/26 02:57:20;;;;;;;3.95;3.72;;;9.50;99.90;;;;;;5029991;28;20240;-84
2023/10/26 02:59:47;;;;;;;1.90;1.80;;;9.50;99.90;;;;;;5030027;28;20231;-82
2023/10/26 03:02:14;;;;;;;2.35;2.25;;;9.50;99.90;;;;;;5034786;28;20216;-83
2023/10/26 03:04:42;;;;;;;3.80;3.60;;;9.50;99.90;;;;;;5030501;28;20219;-83
2023/10/26 03:07:11;;;;;;;2.55;2.42;;;9.50;99.90;;;;;;5029625;28;20261;-84
2023/10/26 03:09:38;;;;;;;3.72;3.47;;;9.50;99.90;;;;;;5036506;28;20232;-81
2023/10/26 03:12:05;;;;;;;2.65;2.55;;;9.50;99.90;;;;;;5033806;28;20203;-83
2023/10/26 03:14:32;;;;;;;2.63;2.45;;;9.50;99.90;;;;;;5041025;28;20209;-81
2023/10/26 03:17:00;;;;;;;3.40;3.28;;;9.60;99.90;;;;;;5031450;28;20462;-82
2023/10/26 03:19:27;;;;;;;2.75;2.60;;;9.50;99.90;;;;;;5019886;28;20220;-82
2023/10/26 03:21:54;;;;;;;0.90;0.90;;;9.50;99.90;;;;;;5016593;28;20213;-82
2023/10/26 03:24:22;;;;;;;2.22;2.13;;;9.50;99.90;;;;;;5027224;28;20221;-80
2023/10/26 03:26:48;;;;;;;3.20;3.00;;;9.50;99.90;;;;;;5030817;28;20207;-82
2023/10/26 03:29:16;;;;;;;2.45;2.35;;;9.40;99.90;;;;;;5026921;28;20594;-81
2023/10/26 03:31:43;;;;;;;1.80;1.60;;;9.40;99.90;;;;;;5007248;28;20469;-82
2023/10/26 03:34:10;;;;;;;4.10;3.90;;;9.30;99.90;;;;;;5012877;28;20209;-81
2023/10/26 03:36:38;;;;;;;0.70;0.70;;;9.40;99.90;;;;;;5040885;28;20189;-78
2023/10/26 03:39:05;;;;;;;2.90;2.75;;;9.40;99.90;;;;;;5047095;28;20188;-82
2023/10/26 03:41:32;;;;;;;1.58;1.17;;;9.40;99.90;;;;;;5019650;28;20236;-84
2023/10/26 03:43:59;;;;;;;2.58;2.47;;;9.40;99.90;;;;;;5033052;28;20281;-80
2023/10/26 03:46:26;;;;;;;4.00;3.75;;;9.30;99.90;;;;;;5028716;28;20228;-82
2023/10/26 03:48:53;;;;;;;1.13;1.13;;;9.40;99.90;;;;;;5027896;28;20302;-83
2023/10/26 03:51:20;;;;;;;4.15;3.80;;;9.40;99.90;;;;;;5029985;28;20497;-84
2023/10/26 03:53:48;;;;;;;5.05;4.60;;;9.40;99.90;;;;;;5039732;28;20247;-80
2023/10/26 03:56:16;;;;;;;2.25;2.15;;;9.30;99.90;;;;;;5032003;28;20300;-82
2023/10/26 03:58:42;;;;;;;1.98;1.88;;;9.30;99.90;;;;;;5021132;28;20223;-83
2023/10/26 04:01:10;;;;;;;3.80;3.60;;;9.30;99.90;;;;;;5024579;28;20276;-82
2023/10/26 04:03:36;;;;;;;3.33;3.15;;;9.40;99.90;;;;;;5032807;28;20209;-78
2023/10/26 04:06:04;;;;;;;2.55;2.40;;;9.30;99.90;;;;;;5027803;28;20210;-81
2023/10/26 04:08:31;;;;;;;1.63;1.60;;;9.40;99.90;;;;;;5025733;28;20514;-81
2023/10/26 04:10:58;;;;;;;3.30;2.78;;;9.40;99.90;;;;;;5003805;28;20301;-81
2023/10/26 04:13:30;;;;;;;4.72;2.80;;;9.30;99.90;;;;;;5025977;28;20230;-79
2023/10/26 04:16:01;;;;;;;1.95;1.38;;;9.30;99.90;;;;;;5026097;28;20209;-80
2023/10/26 04:18:29;;;;;;;2.58;2.47;;;9.30;99.90;;;;;;5033005;28;20264;-81
2023/10/26 04:20:56;;;;;;;4.82;4.53;;;9.30;99.90;;;;;;5028374;28;20205;-80
2023/10/26 04:23:23;;;;;;;2.67;2.58;;;9.30;99.90;;;;;;5007379;28;20613;-79
2023/10/26 04:25:50;;;;;;;1.85;1.75;;;9.30;99.90;;;;;;5023064;28;20277;-80
2023/10/26 04:28:21;;;;;;;4.63;3.05;;;9.30;99.90;;;;;;5024718;28;20213;-79
2023/10/26 04:30:48;;;;;;;3.83;3.63;;;9.20;99.90;;;;;;5018058;28;20240;-82
2023/10/26 04:33:16;;;;;;;0.88;0.88;;;9.30;99.90;;;;;;5015765;28;20292;-78
2023/10/26 04:35:44;;;;;;;3.17;3.08;;;9.20;99.90;;;;;;5019713;28;20249;-80
2023/10/26 04:38:12;;;;;;;2.72;2.63;;;9.40;99.90;;;;;;5013043;28;20253;-80
2023/10/26 04:40:40;;;;;;;3.15;2.90;;;9.30;99.90;;;;;;5017571;28;20233;-80
2023/10/26 04:43:08;;;;;;;2.35;2.25;;;9.20;99.90;;;;;;5022145;28;20197;-81
2023/10/26 04:45:36;;;;;;;2.13;1.95;;;9.30;99.90;;;;;;5033173;28;20438;-79
2023/10/26 04:48:03;;;;;;;1.92;1.83;;;9.20;99.90;;;;;;5021771;28;20205;-83
2023/10/26 04:50:31;;;;;;;1.92;1.83;;;9.30;99.90;;;;;;5026073;28;20221;-79
2023/10/26 04:53:02;;;;;;;1.05;1.05;;;9.30;99.90;;;;;;5035023;28;20197;-80
2023/10/26 04:55:33;;;;;;;8.55;4.80;;;9.30;99.90;;;;;;5020430;28;20205;-80
2023/10/26 04:58:01;;;;;;;6.60;6.10;;;9.40;99.90;;;;;;5039577;28;20568;-80
2023/10/26 05:00:30;;;;;;;2.10;1.95;;;9.20;99.90;;;;;;5027257;28;20237;-81
2023/10/26 05:02:57;;;;;;;3.45;3.28;;;9.50;99.90;;;;;;5030745;28;20206;-80
2023/10/26 05:05:24;;;;;;;1.67;1.58;;;9.50;99.90;;;;;;5033623;28;20213;-81
2023/10/26 05:07:51;;;;;;;1.60;1.50;;;9.50;99.90;;;;;;5035895;28;20248;-78
2023/10/26 05:10:20;;;;;;;2.88;2.50;;;9.40;99.90;;;;;;5030808;28;20260;-84
2023/10/26 05:12:47;;;;;;;5.15;4.78;;;9.40;99.90;;;;;;5028860;28;20212;-81
2023/10/26 05:15:14;;;;;;;3.53;3.33;;;9.40;99.90;;;;;;5022095;28;20248;-84
2023/10/26 05:17:41;;;;;;;3.00;1.92;;;9.50;99.90;;;;;;5023250;28;20398;-81
2023/10/26 05:20:09;;;;;;;5.20;4.07;;;9.60;99.90;;;;;;5026001;28;20448;-84
2023/10/26 05:22:37;;;;;;;1.70;1.60;;;9.60;99.90;;;;;;5023678;28;20402;-82
2023/10/26 05:25:04;;;;;;;2.38;2.28;;;9.70;99.90;;;;;;5014870;28;20291;-82
2023/10/26 05:27:32;;;;;;;2.63;1.65;;;9.60;99.90;;;;;;5038965;28;20197;-80
2023/10/26 05:30:03;;;;;;;0.77;0.77;;;9.60;99.90;;;;;;5033151;28;20288;-79
2023/10/26 05:32:30;;;;;;;1.33;1.30;;;9.70;99.90;;;;;;5035388;28;20221;-80
2023/10/26 05:34:57;;;;;;;2.50;2.40;;;9.80;99.90;;;;;;5030583;28;20393;-82
2023/10/26 05:37:24;;;;;;;0.75;0.75;;;9.80;99.90;;;;;;5017342;28;20439;-80
2023/10/26 05:39:51;;;;;;;4.13;3.92;;;9.80;99.90;;;;;;5031162;28;20217;-81
2023/10/26 05:42:19;;;;;;;1.33;1.27;;;9.80;99.90;;;;;;5025953;28;20202;-81
2023/10/26 05:44:45;;;;;;;6.50;2.97;;;9.80;99.90;;;;;;5017931;28;20240;-79
2023/10/26 05:47:13;;;;;;;2.45;2.35;;;9.90;99.90;;;;;;5020312;28;20197;-82
2023/10/26 05:49:39;;;;;;;0.93;0.93;;;9.90;99.90;;;;;;5024146;28;20248;-81
2023/10/26 05:52:06;;;;;;;4.03;2.60;;;10.00;99.90;;;;;;5021511;28;20372;-82
2023/10/26 05:54:35;;;;;;;2.33;2.22;;;10.00;99.90;;;;;;5021496;28;20220;-82
2023/10/26 05:57:02;;;;;;;3.97;3.78;;;10.00;99.90;;;;;;5025137;28;20232;-84
2023/10/26 05:59:30;;;;;;;2.95;2.75;;;9.90;99.90;;;;;;5025037;28;20498;-82
2023/10/26 06:01:56;;;;;;;1.45;1.42;;;9.90;99.90;;;;;;5019486;28;20221;-82
2023/10/26 06:04:23;;;;;;;1.83;1.73;;;10.00;99.90;;;;;;5028235;28;20272;-80
2023/10/26 06:06:50;;;;;;;1.65;1.55;;;10.00;99.90;;;;;;5035970;28;20258;-81
2023/10/26 06:09:17;;;;;;;1.33;1.33;;;10.00;99.90;;;;;;5036939;28;20255;-82
2023/10/26 06:11:44;;;;;;;1.58;1.58;;;10.00;99.90;;;;;;5031488;28;20201;-80
2023/10/26 06:14:11;;;;;;;1.15;1.13;;;10.10;99.90;;;;;;5029742;28;20280;-80
2023/10/26 06:16:38;;;;;;;1.60;1.25;;;10.10;99.90;;;;;;5029074;28;20509;-86
2023/10/26 06:19:05;;;;;;;0.60;0.60;;;10.10;99.90;;;;;;5020542;28;20271;-80
2023/10/26 06:21:32;;;;;;;1.15;1.15;;;10.20;99.90;;;;;;5029292;28;20204;-81
2023/10/26 06:23:59;;;;;;;0.40;0.40;;;10.20;99.90;;;;;;5015703;28;20206;-82
2023/10/26 06:26:27;;;;;;;1.15;1.13;;;10.20;99.90;;;;;;5035091;28;20276;-83
2023/10/26 06:28:54;;;;;;;0.60;0.60;;;10.20;99.90;;;;;;5022905;28;20272;-83
2023/10/26 06:31:22;;;;;;;1.27;1.17;;;10.30;99.90;;;;;;5035833;28;20575;-83
2023/10/26 06:33:49;;;;;;;0.95;0.95;;;10.30;99.90;;;;;;5033134;28;20200;-84
2023/10/26 06:36:16;;;;;;;1.35;1.35;;;10.40;99.90;;;;;;5037517;28;20205;-82
2023/10/26 06:38:43;;;;;;;0.40;0.40;;;10.50;99.90;;;;;;5038313;28;20213;-81
2023/10/26 06:41:10;;;;;;;0.50;0.50;;;10.50;99.90;;;;;;5034526;28;20273;-83
2023/10/26 06:43:38;;;;;;;0.70;0.70;;;10.60;99.90;;;;;;5031131;28;20236;-84
2023/10/26 06:46:05;;;;;;;0.40;0.40;;;10.70;99.90;;;;;;5019879;28;20210;-83
2023/10/26 06:48:32;;;;;;;1.40;1.35;;;10.80;99.90;;;;;;5027270;28;20455;-83
2023/10/26 06:51:01;;;;;;;1.10;1.10;;;10.90;99.90;;;;;;5016298;28;20245;-83
2023/10/26 06:53:29;;;;;;;0.50;0.50;;;10.90;99.90;;;;;;5021001;28;20218;-80
2023/10/26 06:55:57;;;;;;;0.40;0.40;;;10.90;99.90;;;;;;5027643;28;20236;-82
2023/10/26 06:58:24;;;;;;;0.40;0.40;;;11.00;99.90;;;;;;5044027;28;20276;-80
2023/10/26 07:00:52;;;;;;;2.50;2.30;;;11.00;99.90;;;;;;5019766;28;20210;-83
2023/10/26 07:03:20;;;;;;;1.55;1.45;;;11.10;99.90;;;;;;5009046;28;20209;-82
2023/10/26 07:05:48;;;;;;;0.60;0.60;;;11.10;99.90;;;;;;5026295;28;20221;-81
2023/10/26 07:08:16;;;;;;;0.47;0.47;;;11.10;99.90;;;;;;5006516;28;20491;-83
2023/10/26 07:10:43;;;;;;;0.82;0.82;;;11.20;99.90;;;;;;5029799;28;20224;-80
2023/10/26 07:13:10;;;;;;;0.40;0.40;;;11.20;99.90;;;;;;5034936;28;20255;-83
2023/10/26 07:15:37;;;;;;;0.70;0.70;;;11.30;99.90;;;;;;5039928;28;20186;-81
2023/10/26 07:18:04;;;;;;;0.40;0.40;;;11.30;99.90;;;;;;5022489;28;20224;-81
2023/10/26 07:20:32;;;;;;;0.70;0.70;;;11.40;99.90;;;;;;5037704;28;20193;-81
2023/10/26 07:22:59;;;;;;;0.93;0.93;;;11.50;99.90;;;;;;5043679;28;20200;-85
2023/10/26 07:25:26;;;;;;;0.50;0.50;;;11.60;99.90;;;;;;5036609;28;20217;-81
2023/10/26 07:27:53;;;;;;;0.40;0.40;;;11.80;99.90;;;;;;5011142;28;20284;-84
2023/10/26 07:30:24;;;;;;;0.50;0.50;;;12.10;99.90;;;;;;5036434;28;20232;-80
2023/10/26 07:32:51;;;;;;;0.40;0.40;;;12.20;99.90;;;;;;5026100;28;20213;-82
2023/10/26 07:35:18;;;;;;;0.40;0.40;;;12.50;99.90;;;;;;5037623;28;20259;-84
2023/10/26 07:37:45;;;;;;;0.50;0.50;;;12.70;99.90;;;;;;5032854;28;20213;-81
2023/10/26 07:40:34;;;;;;;0.77;0.77;;;13.30;99.90;;;;;;5027791;28;20200;-82
2023/10/26 07:43:01;;;;;;;0.40;0.40;;;13.50;99.90;;;;;;5024688;28;20475;-82
2023/10/26 07:45:28;;;;;;;1.67;1.58;;;13.60;99.90;;;;;;5029415;28;20205;-83
2023/10/26 07:47:56;;;;;;;0.50;0.50;;;13.50;99.90;;;;;;5023463;28;20539;-82
2023/10/26 07:50:27;;;;;;;0.40;0.40;;;13.20;99.90;;;;;;5027921;28;20511;-81
2023/10/26 07:52:54;;;;;;;0.40;0.40;;;13.00;99.90;;;;;;5023448;28;20256;-83
2023/10/26 07:55:21;;;;;;;0.60;0.60;;;12.90;99.90;;;;;;5016550;28;20447;-81
2023/10/26 07:57:48;;;;;;;0.40;0.40;;;12.80;99.90;;;;;;5035188;28;20662;-79
2023/10/26 08:00:16;;;;;;;0.40;0.40;;;12.60;99.90;;;;;;5032085;28;20293;-85
2023/10/26 08:02:42;;;;;;;0.50;0.50;;;12.60;99.90;;;;;;5030828;28;20979;-85
2023/10/26 08:05:12;;;;;;;0.50;0.50;;;12.50;99.90;;;;;;5022261;28;20216;-84
2023/10/26 08:07:39;;;;;;;0.40;0.40;;;12.50;99.90;;;;;;5028777;28;20208;-80
2023/10/26 08:10:09;;;;;;;0.40;0.40;;;12.50;99.90;;;;;;5025813;28;20296;-84
2023/10/26 08:12:36;;;;;;;0.40;0.40;;;12.40;99.90;;;;;;5033009;28;20200;-82
2023/10/26 08:15:04;;;;;;;0.40;0.40;;;12.40;99.90;;;;;;5027935;28;20216;-82
2023/10/26 08:17:51;;;;;;;0.40;0.40;;;12.30;99.90;;;;;;5007634;28;20260;-82
2023/10/26 08:20:19;;;;;;;0.40;0.40;;;12.30;99.90;;;;;;5024713;28;20529;-82
2023/10/26 08:22:46;;;;;;;0.40;0.40;;;12.20;99.90;;;;;;5021668;28;20454;-82
2023/10/26 08:25:13;;;;;;;0.40;0.40;;;12.20;99.90;;;;;;5031174;28;20219;-81
2023/10/26 08:27:47;;;;;;;0.63;0.63;;;12.20;99.90;;;;;;5038419;28;20204;-81
2023/10/26 08:30:15;;;;;;;0.50;0.50;;;12.20;99.90;;;;;;5033859;28;20257;-81
2023/10/26 08:32:41;;;;;;;0.50;0.50;;;12.20;99.90;;;;;;5033573;28;20244;-79
2023/10/26 08:35:09;;;;;;;0.40;0.40;;;12.20;99.90;;;;;;5022816;28;20225;-83
2023/10/26 08:37:37;;;;;;;0.50;0.50;;;12.30;99.90;;;;;;5034446;28;20209;-80
2023/10/26 08:40:12;;;;;;;0.52;0.52;;;12.40;99.90;;;;;;5036382;28;20242;-81
2023/10/26 08:42:40;;;;;;;0.50;0.50;;;12.40;99.90;;;;;;5035599;28;20271;-80
2023/10/26 08:45:12;;;;;;;0.50;0.50;;;12.40;99.90;;;;;;5028613;28;20207;-81
2023/10/26 08:47:41;;;;;;;0.50;0.50;;;12.40;99.90;;;;;;5032066;28;20236;-81
2023/10/26 08:50:12;;;;;;;0.55;0.55;;;12.40;99.90;;;;;;5022879;28;20233;-81
2023/10/26 08:52:42;;;;;;;0.40;0.40;;;12.40;99.90;;;;;;5019408;28;20210;-80
2023/10/26 08:55:10;;;;;;;0.50;0.50;;;12.50;99.90;;;;;;5034415;28;20213;-81
2023/10/26 08:57:51;;;;;;;0.40;0.40;;;12.60;99.90;;;;;;5016560;28;20256;-80
2023/10/26 09:00:23;;;;;;;0.50;0.50;;;12.70;99.90;;;;;;5019927;28;20205;-84
2023/10/26 09:02:50;;;;;;;0.40;0.40;;;12.70;99.90;;;;;;5038269;28;20508;-80
2023/10/26 09:05:18;;;;;;;0.50;0.50;;;12.60;99.90;;;;;;5022674;28;20249;-84
2023/10/26 09:07:45;;;;;;;0.40;0.40;;;12.60;99.90;;;;;;5033001;28;20213;-82
2023/10/26 09:10:12;;;;;;;0.60;0.60;;;12.50;99.90;;;;;;5031344;28;20208;-81
2023/10/26 09:12:39;;;;;;;0.40;0.40;;;12.60;99.90;;;;;;5033785;28;20189;-80
2023/10/26 09:15:06;;;;;;;0.40;0.40;;;12.60;99.90;;;;;;5034414;28;20252;-81
2023/10/26 09:17:34;;;;;;;0.57;0.57;;;12.70;99.90;;;;;;5035578;28;20234;-81
2023/10/26 09:20:21;;;;;;;0.40;0.40;;;12.60;99.90;;;;;;5015767;28;20220;-82
2023/10/26 09:22:48;;;;;;;0.40;0.40;;;12.60;99.90;;;;;;5027407;28;20213;-81
2023/10/26 09:25:15;;;;;;;0.40;0.40;;;12.60;99.90;;;;;;5025345;28;20376;-80
2023/10/26 09:27:48;;;;;;;1.02;0.98;;;12.70;99.90;;;;;;5027951;28;20212;-79
2023/10/26 09:30:28;;;;;;;0.50;0.50;;;12.90;99.90;;;;;;5033900;28;20267;-79
2023/10/26 09:32:58;;;;;;;1.30;1.30;;;12.90;99.90;;;;;;5030416;28;20208;-79
2023/10/26 09:35:30;;;;;;;0.40;0.40;;;13.00;99.90;;;;;;5031339;28;20469;-79
2023/10/26 09:37:58;;;;;;;0.40;0.40;;;13.00;99.90;;;;;;5020032;28;20205;-80
2023/10/26 09:40:26;;;;;;;0.50;0.50;;;13.10;99.90;;;;;;5032903;28;20485;-80
2023/10/26 09:42:57;;;;;;;0.50;0.50;;;13.30;99.90;;;;;;5017527;28;20236;-81
2023/10/26 09:45:25;;;;;;;1.27;1.27;;;13.30;99.90;;;;;;5028788;28;20205;-80
2023/10/26 09:47:52;;;;;;;0.70;0.70;;;13.50;99.90;;;;;;5025219;28;20409;-79
2023/10/26 09:50:20;;;;;;;0.60;0.60;;;13.60;99.90;;;;;;5022589;28;20431;-80
2023/10/26 09:52:48;;;;;;;0.50;0.50;;;13.80;99.90;;;;;;5016489;28;20447;-79
2023/10/26 09:55:17;;;;;;;1.03;0.93;;;13.80;99.90;;;;;;4997155;28;20443;-79
2023/10/26 09:58:00;;;;;;;0.50;0.50;;;14.20;99.90;;;;;;5024464;28;20445;-78
2023/10/26 10:00:33;;;;;;;0.50;0.50;;;14.30;99.90;;;;;;5016927;28;21017;-80
2023/10/26 10:03:18;;;;;;;1.30;1.23;;;14.30;99.90;;;;;;5029300;28;20430;-79
2023/10/26 10:05:47;;;;;;;0.57;0.57;;;14.20;99.90;;;;;;5020858;28;20425;-80
2023/10/26 10:08:34;;;;;;;0.70;0.70;;;14.10;99.90;;;;;;5024230;28;20435;-80
2023/10/26 10:11:17;;;;;;;0.50;0.50;;;14.10;99.90;;;;;;5013016;28;20485;-78
2023/10/26 10:13:46;;;;;;;0.57;0.57;;;14.10;99.90;;;;;;5028603;28;20417;-80
2023/10/26 10:16:35;;;;;;;0.60;0.60;;;14.20;99.90;;;;;;5036791;28;20832;-79
2023/10/26 10:19:23;;;;;;;0.60;0.60;;;14.10;99.90;;;;;;5020674;28;20414;-79
2023/10/26 10:21:51;;;;;;;1.20;1.20;;;14.10;99.90;;;;;;5025089;28;20454;-79
2023/10/26 10:24:37;;;;;;;0.70;0.70;;;14.10;99.90;;;;;;5010174;28;20756;-80
2023/10/26 10:27:11;;;;;;;1.83;1.73;;;14.20;99.90;;;;;;5023644;28;20441;-80
2023/10/26 10:29:42;;;;;;;0.60;0.60;;;14.00;99.90;;;;;;5019506;28;20402;-80
2023/10/26 10:32:12;;;;;;;1.03;1.03;;;14.00;99.90;;;;;;5023719;28;20898;-82
2023/10/26 10:34:45;;;;;;;0.50;0.50;;;13.80;99.90;;;;;;5032501;28;20452;-79
2023/10/26 10:37:14;;;;;;;0.63;0.63;;;13.80;99.90;;;;;;5044147;28;20439;-79
2023/10/26 10:40:10;;;;;;;0.60;0.60;;;13.70;99.90;;;;;;5033005;28;20426;-79
2023/10/26 10:42:40;;;;;;;0.50;0.50;;;13.60;99.90;;;;;;5036190;28;20447;-81
2023/10/26 10:45:13;;;;;;;0.60;0.60;;;13.60;99.90;;;;;;5020934;28;20468;-80
2023/10/26 10:47:41;;;;;;;1.03;1.03;;;13.40;99.90;;;;;;5032456;28;20447;-79
2023/10/26 10:50:16;;;;;;;0.50;0.50;;;13.40;99.90;;;;;;5017651;28;20413;-79
2023/10/26 10:52:45;;;;;;;0.60;0.60;;;13.30;99.90;;;;;;5028299;28;20575;-80
2023/10/26 10:55:12;;;;;;;0.60;0.60;;;13.30;99.90;;;;;;5038377;28;20509;-80
2023/10/26 10:57:59;;;;;;;0.67;0.67;;;13.20;99.90;;;;;;5043843;28;20455;-79
2023/10/26 11:00:49;;;;;;;6.53;1.50;;;13.20;99.90;;;;;;5035357;28;20518;-78
2023/10/26 11:03:21;;;;;;;0.60;0.60;;;13.20;99.90;;;;;;5031902;28;20428;-81
2023/10/26 11:05:48;;;;;;;0.83;0.83;;;13.10;99.90;;;;;;5041207;28;20491;-78
2023/10/26 11:08:15;;;;;;;1.80;1.70;;;13.00;99.90;;;;;;5032720;28;20581;-78
2023/10/26 11:10:49;;;;;;;0.60;0.60;;;13.00;99.90;;;;;;5017098;28;20428;-80
2023/10/26 11:13:21;;;;;;;0.60;0.60;;;12.90;99.90;;;;;;5030057;28;20460;-80
2023/10/26 11:15:48;;;;;;;0.50;0.50;;;12.90;99.90;;;;;;5014233;28;20419;-78
2023/10/26 11:18:15;;;;;;;0.53;0.53;;;12.90;99.90;;;;;;5010527;28;20537;-80
2023/10/26 11:20:46;;;;;;;0.60;0.60;;;12.80;99.90;;;;;;5024412;28;20420;-81
2023/10/26 11:23:16;;;;;;;0.40;0.40;;;12.90;99.90;;;;;;5023626;28;20213;-79
2023/10/26 11:25:46;;;;;;;0.70;0.70;;;12.90;99.90;;;;;;5022977;28;20224;-78
2023/10/26 11:28:13;;;;;;;0.50;0.50;;;12.80;99.90;;;;;;5011225;28;20251;-79
2023/10/26 11:30:51;;;;;;;0.50;0.50;;;12.90;99.90;;;;;;5026373;28;20257;-79
2023/10/26 11:33:42;;;;;;;1.67;0.85;;;12.90;99.90;;;;;;5018725;28;20449;-79
2023/10/26 11:36:13;;;;;;;0.77;0.77;;;13.00;99.90;;;;;;5010660;28;20265;-79
2023/10/26 11:38:48;;;;;;;0.50;0.50;;;12.80;99.90;;;;;;5018039;28;20221;-78
2023/10/26 11:41:26;;;;;;;0.50;0.50;;;12.80;99.90;;;;;;5015766;28;20237;-79
2023/10/26 11:43:54;;;;;;;0.50;0.50;;;12.80;99.90;;;;;;5022492;28;20205;-80
2023/10/26 11:46:32;;;;;;;0.60;0.60;;;12.80;99.90;;;;;;5016471;28;20240;-80
2023/10/26 11:49:01;;;;;;;0.50;0.50;;;12.90;99.90;;;;;;5022830;28;20453;-79
2023/10/26 11:51:29;;;;;;;0.60;0.60;;;12.90;99.90;;;;;;5023711;28;20418;-79
2023/10/26 11:54:07;;;;;;;0.50;0.50;;;12.90;99.90;;;;;;5022424;28;20626;-79
2023/10/26 11:56:34;;;;;;;0.50;0.50;;;12.90;99.90;;;;;;5031090;28;20244;-79
2023/10/26 11:59:01;;;;;;;0.50;0.50;;;12.90;99.90;;;;;;5017451;28;20273;-79
2023/10/26 12:01:28;;;;;;;0.50;0.50;;;12.90;99.90;;;;;;5032744;28;20536;-79
2023/10/26 12:03:55;;;;;;;0.50;0.50;;;12.90;99.90;;;;;;5031571;28;20446;-79
2023/10/26 12:06:22;;;;;;;0.70;0.70;;;13.00;99.90;;;;;;5034710;28;20618;-79
2023/10/26 12:08:49;;;;;;;0.60;0.60;;;13.10;99.90;;;;;;5033752;28;20443;-79
2023/10/26 12:11:16;;;;;;;1.10;1.10;;;13.20;99.90;;;;;;5027367;28;20456;-78
2023/10/26 12:13:43;;;;;;;0.70;0.70;;;13.20;99.90;;;;;;5030036;28;20445;-78
2023/10/26 12:16:10;;;;;;;0.70;0.70;;;13.20;99.90;;;;;;4992720;28;20484;-80
2023/10/26 12:18:37;;;;;;;0.60;0.60;;;13.20;99.90;;;;;;5020863;28;20404;-80
2023/10/26 12:21:04;;;;;;;0.90;0.90;;;13.20;99.90;;;;;;5024290;28;20213;-78
2023/10/26 12:23:31;;;;;;;0.50;0.50;;;13.10;99.90;;;;;;5029684;28;20603;-79
2023/10/26 12:25:58;;;;;;;0.60;0.60;;;13.10;99.90;;;;;;5031211;28;20509;-80
2023/10/26 12:28:26;;;;;;;0.70;0.70;;;13.10;99.90;;;;;;5024620;28;20496;-79
2023/10/26 12:30:56;;;;;;;0.50;0.50;;;13.20;99.90;;;;;;5025292;28;20413;-80
2023/10/26 12:33:23;;;;;;;0.50;0.50;;;13.10;99.90;;;;;;5013728;28;20874;-79
2023/10/26 12:35:50;;;;;;;0.50;0.50;;;13.40;99.90;;;;;;5022815;28;20514;-76
2023/10/26 12:38:19;;;;;;;0.50;0.50;;;13.30;99.90;;;;;;5017798;28;20694;-76
2023/10/26 12:40:49;;;;;;;0.50;0.50;;;13.20;99.90;;;;;;5028268;28;20439;-78
2023/10/26 12:43:17;;;;;;;1.00;1.00;;;13.20;99.90;;;;;;5012483;28;20448;-77
2023/10/26 12:45:43;;;;;;;0.50;0.50;;;13.20;99.90;;;;;;5019063;28;20442;-78
2023/10/26 12:48:11;;;;;;;0.50;0.50;;;13.20;99.90;;;;;;5031581;28;20484;-78
2023/10/26 12:50:38;;;;;;;0.50;0.50;;;13.30;99.90;;;;;;5027344;28;20789;-78
2023/10/26 12:53:05;;;;;;;0.50;0.50;;;13.20;99.90;;;;;;5019906;28;20551;-79
2023/10/26 12:55:34;;;;;;;1.03;1.03;;;13.20;99.90;;;;;;5026785;28;20467;-77
2023/10/26 12:58:01;;;;;;;0.50;0.50;;;13.20;99.90;;;;;;5031888;28;20605;-78